createdAt,value
2022-11-30T00:00:51.177Z,46.42
2022-11-30T00:03:18.076Z,46.48
2022-11-30T00:05:45.026Z,46.74
2022-11-30T00:08:11.957Z,47.14
2022-11-30T00:10:39.440Z,47.05
2022-11-30T00:13:06.308Z,47.15
2022-11-30T00:15:33.459Z,47.30
2022-11-30T00:18:00.357Z,47.29
2022-11-30T00:20:29.220Z,47.68
2022-11-30T00:22:56.981Z,47.51
2022-11-30T00:25:24.328Z,47.92
2022-11-30T00:27:51.118Z,48.03
2022-11-30T00:30:17.928Z,47.93
2022-11-30T00:32:44.777Z,47.77
2022-11-30T00:35:11.585Z,47.79
2022-11-30T00:37:38.339Z,47.84
2022-11-30T00:40:06.087Z,48.31
2022-11-30T00:42:32.891Z,48.03
2022-11-30T00:44:59.747Z,48.34
2022-11-30T00:47:26.547Z,48.03
2022-11-30T00:49:53.320Z,48.42
2022-11-30T00:52:20.117Z,48.12
2022-11-30T00:54:47.247Z,48.47
2022-11-30T00:57:14.394Z,48.27
2022-11-30T00:59:41.268Z,48.08
2022-11-30T01:02:08.864Z,48.24
2022-11-30T01:04:35.806Z,48.29
2022-11-30T01:07:02.490Z,48.60
2022-11-30T01:09:29.347Z,48.64
2022-11-30T01:11:56.136Z,48.40
2022-11-30T01:14:22.990Z,48.68
2022-11-30T01:16:54.734Z,48.45
2022-11-30T01:19:22.992Z,48.70
2022-11-30T01:21:49.898Z,48.69
2022-11-30T01:24:16.760Z,49.10
2022-11-30T01:26:43.467Z,48.65
2022-11-30T01:29:10.248Z,48.66
2022-11-30T01:31:37.300Z,49.06
2022-11-30T01:34:04.287Z,48.87
2022-11-30T01:36:31.047Z,49.03
2022-11-30T01:38:58.531Z,49.06
2022-11-30T01:41:28.159Z,49.02
2022-11-30T01:43:56.256Z,49.52
2022-11-30T01:46:28.201Z,49.20
2022-11-30T01:48:57.718Z,49.14
2022-11-30T01:51:26.129Z,49.42
2022-11-30T01:53:52.905Z,49.52
2022-11-30T01:56:19.721Z,49.50
2022-11-30T01:58:46.677Z,49.54
2022-11-30T02:01:13.595Z,49.47
2022-11-30T02:03:44.357Z,49.97
2022-11-30T02:06:11.490Z,49.66
2022-11-30T02:08:38.437Z,49.59
2022-11-30T02:11:06.555Z,49.89
2022-11-30T02:13:33.578Z,49.94
2022-11-30T02:16:00.657Z,50.17
2022-11-30T02:18:32.460Z,50.09
2022-11-30T02:20:59.531Z,49.74
2022-11-30T02:23:27.467Z,50.05
2022-11-30T02:26:05.590Z,50.05
2022-11-30T02:28:42.248Z,50.23
2022-11-30T02:31:10.810Z,50.70
2022-11-30T02:33:39.446Z,50.21
2022-11-30T02:36:06.848Z,50.71
2022-11-30T02:38:34.357Z,50.34
2022-11-30T02:41:01.062Z,50.41
2022-11-30T02:43:28.658Z,50.96
2022-11-30T02:46:01.877Z,50.84
2022-11-30T02:48:33.062Z,51.12
2022-11-30T02:51:01.606Z,51.18
2022-11-30T02:53:28.608Z,51.30
2022-11-30T02:55:55.788Z,51.15
2022-11-30T02:58:22.572Z,51.41
2022-11-30T03:00:50.368Z,50.98
2022-11-30T03:03:17.188Z,51.30
2022-11-30T03:05:44.109Z,51.09
2022-11-30T03:08:11.110Z,51.13
2022-11-30T03:10:39.456Z,51.32
2022-11-30T03:13:06.376Z,51.32
2022-11-30T03:15:40.456Z,51.08
2022-11-30T03:18:11.390Z,51.21
2022-11-30T03:20:42.790Z,51.36
2022-11-30T03:23:10.001Z,51.44
2022-11-30T03:25:36.831Z,51.40
2022-11-30T03:28:03.791Z,51.27
2022-11-30T03:30:30.695Z,50.94
2022-11-30T03:32:59.819Z,51.00
2022-11-30T03:35:26.552Z,51.20
2022-11-30T03:37:53.402Z,51.33
2022-11-30T03:40:20.154Z,51.31
2022-11-30T03:42:48.218Z,51.39
2022-11-30T03:45:15.274Z,51.20
2022-11-30T03:47:47.978Z,51.19
2022-11-30T03:50:16.768Z,51.24
2022-11-30T03:52:43.801Z,51.33
2022-11-30T03:55:10.675Z,51.30
2022-11-30T03:57:37.487Z,51.54
2022-11-30T04:00:05.281Z,51.19
2022-11-30T04:02:44.330Z,51.62
2022-11-30T04:05:12.530Z,51.40
2022-11-30T04:07:39.698Z,51.84
2022-11-30T04:10:08.673Z,51.61
2022-11-30T04:12:36.081Z,51.88
2022-11-30T04:15:03.064Z,51.98
2022-11-30T04:17:29.892Z,51.98
2022-11-30T04:19:57.526Z,51.77
2022-11-30T04:22:28.681Z,52.26
2022-11-30T04:24:55.511Z,51.85
2022-11-30T04:27:22.572Z,51.96
2022-11-30T04:29:49.321Z,52.27
2022-11-30T04:32:16.037Z,52.50
2022-11-30T04:34:43.776Z,52.53
2022-11-30T04:37:10.590Z,52.49
2022-11-30T04:39:37.285Z,52.31
2022-11-30T04:42:04.135Z,52.42
2022-11-30T04:44:32.427Z,52.55
2022-11-30T04:46:59.157Z,52.47
2022-11-30T04:49:26.386Z,52.49
2022-11-30T04:51:55.236Z,52.13
2022-11-30T04:54:21.992Z,52.55
2022-11-30T04:56:48.751Z,52.66
2022-11-30T04:59:15.540Z,52.14
2022-11-30T05:01:42.556Z,52.26
2022-11-30T05:04:12.831Z,52.21
2022-11-30T05:06:40.741Z,52.48
2022-11-30T05:09:07.482Z,52.14
2022-11-30T05:11:34.161Z,52.16
2022-11-30T05:14:05.366Z,52.21
2022-11-30T05:16:32.237Z,52.46
2022-11-30T05:18:59.310Z,52.61
2022-11-30T05:21:30.955Z,52.43
2022-11-30T05:23:57.772Z,52.37
2022-11-30T05:26:25.001Z,52.23
2022-11-30T05:28:53.726Z,52.21
2022-11-30T05:31:23.009Z,52.18
2022-11-30T05:33:52.761Z,52.00
2022-11-30T05:36:19.794Z,52.32
2022-11-30T05:38:46.916Z,52.18
2022-11-30T05:41:13.571Z,52.62
2022-11-30T05:43:40.496Z,52.61
2022-11-30T05:46:09.071Z,52.55
2022-11-30T05:48:36.346Z,52.70
2022-11-30T05:51:07.310Z,52.46
2022-11-30T05:53:34.356Z,52.77
2022-11-30T05:56:04.135Z,52.98
2022-11-30T05:58:31.546Z,52.91
2022-11-30T06:00:58.740Z,52.80
2022-11-30T06:03:25.850Z,52.78
2022-11-30T06:05:53.202Z,52.50
2022-11-30T06:08:20.380Z,52.54
2022-11-30T06:10:47.290Z,52.31
2022-11-30T06:13:14.766Z,52.25
2022-11-30T06:15:42.351Z,51.91
2022-11-30T06:18:09.901Z,52.32
2022-11-30T06:20:37.305Z,52.14
2022-11-30T06:23:05.185Z,51.76
2022-11-30T06:25:32.341Z,51.82
2022-11-30T06:27:59.155Z,51.81
2022-11-30T06:30:26.649Z,51.96
2022-11-30T06:32:53.544Z,51.98
2022-11-30T06:35:20.288Z,51.59
2022-11-30T06:37:46.989Z,51.70
2022-11-30T06:40:14.077Z,51.44
2022-11-30T06:42:41.238Z,51.70
2022-11-30T06:45:08.508Z,52.53
2022-11-30T06:47:35.559Z,52.03
2022-11-30T06:50:02.359Z,52.16
2022-11-30T06:52:30.350Z,52.00
2022-11-30T06:55:00.356Z,51.71
2022-11-30T06:57:29.160Z,51.76
2022-11-30T06:59:56.765Z,51.24
2022-11-30T07:02:25.070Z,51.19
2022-11-30T07:04:55.004Z,51.03
2022-11-30T07:07:26.010Z,50.89
2022-11-30T07:09:57.757Z,50.88
2022-11-30T07:12:40.935Z,50.65
2022-11-30T07:17:57.795Z,50.10
2022-11-30T07:20:29.722Z,49.66
2022-11-30T07:22:57.074Z,49.31
2022-11-30T07:25:35.283Z,48.95
2022-11-30T07:28:17.072Z,48.65
2022-11-30T07:30:49.326Z,48.54
2022-11-30T07:33:23.857Z,48.12
2022-11-30T07:36:18.393Z,47.79
2022-11-30T07:38:49.429Z,47.75
2022-11-30T07:41:21.561Z,47.35
2022-11-30T07:43:56.630Z,47.34
2022-11-30T07:46:33.410Z,47.73
2022-11-30T07:49:03.922Z,44.68
2022-11-30T07:51:31.562Z,44.24
2022-11-30T07:54:16.831Z,44.98
2022-11-30T07:57:03.123Z,44.82
2022-11-30T07:59:29.876Z,45.08
2022-11-30T08:01:56.738Z,44.82
2022-11-30T08:04:23.553Z,44.96
2022-11-30T08:06:56.207Z,45.23
2022-11-30T08:09:23.066Z,45.44
2022-11-30T08:11:50.296Z,45.10
2022-11-30T08:14:17.271Z,45.55
2022-11-30T08:16:44.842Z,45.39
2022-11-30T08:19:11.686Z,45.19
2022-11-30T08:21:38.471Z,45.40
2022-11-30T08:24:05.854Z,45.19
2022-11-30T08:26:33.860Z,45.35
2022-11-30T08:29:01.228Z,45.56
2022-11-30T08:31:29.485Z,45.04
2022-11-30T08:33:57.740Z,45.46
2022-11-30T08:36:25.431Z,45.72
2022-11-30T08:38:52.237Z,45.44
2022-11-30T08:41:21.595Z,45.76
2022-11-30T08:43:49.080Z,45.53
2022-11-30T08:46:49.168Z,45.05
2022-11-30T08:52:16.322Z,44.74
2022-11-30T08:54:40.037Z,44.59
2022-11-30T08:57:06.963Z,44.42
2022-11-30T08:59:33.773Z,44.34
2022-11-30T09:02:00.672Z,44.28
2022-11-30T09:04:27.651Z,44.01
2022-11-30T09:06:59.217Z,44.32
2022-11-30T09:09:26.389Z,44.18
2022-11-30T09:11:53.172Z,43.78
2022-11-30T09:14:20.091Z,43.94
2022-11-30T09:16:46.797Z,43.71
2022-11-30T09:19:13.568Z,43.65
2022-11-30T09:21:40.514Z,43.58
2022-11-30T09:24:07.490Z,43.54
2022-11-30T09:26:34.376Z,43.43
2022-11-30T09:29:01.166Z,43.44
2022-11-30T09:31:28.996Z,43.55
2022-11-30T09:33:57.333Z,43.46
2022-11-30T09:36:27.376Z,43.28
2022-11-30T09:38:54.997Z,43.67
2022-11-30T09:41:29.056Z,43.45
2022-11-30T09:44:05.196Z,43.42
2022-11-30T09:46:41.294Z,43.58
2022-11-30T09:49:17.432Z,43.27
2022-11-30T09:51:44.426Z,43.75
2022-11-30T09:54:14.363Z,44.08
2022-11-30T09:56:42.967Z,43.67
2022-11-30T09:59:19.446Z,44.03
2022-11-30T10:01:52.037Z,44.15
2022-11-30T10:04:23.576Z,43.92
2022-11-30T10:06:58.257Z,43.99
2022-11-30T10:09:25.327Z,44.08
2022-11-30T10:12:01.249Z,44.11
2022-11-30T10:14:37.693Z,44.10
2022-11-30T10:17:14.242Z,43.88
2022-11-30T10:19:50.286Z,43.73
2022-11-30T10:22:26.301Z,44.02
2022-11-30T10:25:05.937Z,44.00
2022-11-30T10:27:45.341Z,43.69
2022-11-30T10:30:14.537Z,43.43
2022-11-30T10:32:43.356Z,43.91
2022-11-30T10:35:19.237Z,43.53
2022-11-30T10:37:47.112Z,43.96
2022-11-30T10:40:17.730Z,43.40
2022-11-30T10:42:50.798Z,43.32
2022-11-30T10:45:19.255Z,43.39
2022-11-30T10:47:49.131Z,43.48
2022-11-30T10:50:17.147Z,43.56
2022-11-30T10:52:45.603Z,43.58
2022-11-30T10:55:14.129Z,43.33
2022-11-30T10:57:40.926Z,43.58
2022-11-30T11:00:13.865Z,43.05
2022-11-30T11:02:47.185Z,43.08
2022-11-30T11:05:15.290Z,43.39
2022-11-30T11:07:51.453Z,42.91
2022-11-30T11:10:19.908Z,43.35
2022-11-30T11:12:52.115Z,43.57
2022-11-30T11:15:20.686Z,43.24
2022-11-30T11:17:47.497Z,43.40
2022-11-30T11:20:23.243Z,43.02
2022-11-30T11:22:50.242Z,43.26
2022-11-30T11:25:24.873Z,43.36
2022-11-30T11:27:53.748Z,43.17
2022-11-30T11:30:30.471Z,43.29
2022-11-30T11:32:58.719Z,43.27
2022-11-30T11:35:37.576Z,43.65
2022-11-30T11:38:05.742Z,43.58
2022-11-30T11:40:32.525Z,43.56
2022-11-30T11:43:00.104Z,43.53
2022-11-30T11:45:29.632Z,43.64
2022-11-30T11:48:04.579Z,43.63
2022-11-30T11:53:42.663Z,44.10
2022-11-30T11:56:18.533Z,44.09
2022-11-30T11:58:48.651Z,43.82
2022-11-30T12:04:09.626Z,43.78
2022-11-30T12:06:37.309Z,43.88
2022-11-30T12:09:08.088Z,44.10
2022-11-30T12:11:42.166Z,43.96
2022-11-30T12:14:12.373Z,44.30
2022-11-30T12:16:42.337Z,44.55
2022-11-30T12:19:12.360Z,44.30
2022-11-30T12:21:42.406Z,44.08
2022-11-30T12:24:09.680Z,44.14
2022-11-30T12:26:42.092Z,44.44
2022-11-30T12:29:12.105Z,44.28
2022-11-30T12:31:46.097Z,44.07
2022-11-30T12:34:13.552Z,44.28
2022-11-30T12:36:50.129Z,43.98
2022-11-30T12:39:20.165Z,43.79
2022-11-30T12:41:47.512Z,44.08
2022-11-30T12:44:17.659Z,43.88
2022-11-30T12:46:47.726Z,43.64
2022-11-30T12:49:22.757Z,43.76
2022-11-30T12:51:52.729Z,43.79
2022-11-30T12:54:22.780Z,43.45
2022-11-30T12:56:54.467Z,43.49
2022-11-30T12:59:24.179Z,43.64
2022-11-30T13:01:57.941Z,43.59
2022-11-30T13:04:27.991Z,43.23
2022-11-30T13:06:58.844Z,43.34
2022-11-30T13:09:30.459Z,43.48
2022-11-30T13:12:00.349Z,43.49
2022-11-30T13:14:28.610Z,43.38
2022-11-30T13:16:58.564Z,43.43
2022-11-30T13:19:25.823Z,43.16
2022-11-30T13:21:56.040Z,43.13
2022-11-30T13:24:29.153Z,42.92
2022-11-30T13:26:59.153Z,42.96
2022-11-30T13:29:27.780Z,42.85
2022-11-30T13:31:57.870Z,43.28
2022-11-30T13:34:28.032Z,43.08
2022-11-30T13:36:58.042Z,43.40
2022-11-30T13:39:26.224Z,43.11
2022-11-30T13:42:01.733Z,43.35
2022-11-30T13:44:30.268Z,43.29
2022-11-30T13:46:57.908Z,43.40
2022-11-30T13:49:28.840Z,43.35
2022-11-30T13:52:20.585Z,43.38
2022-11-30T13:54:43.074Z,43.66
2022-11-30T13:57:13.297Z,43.89
2022-11-30T14:00:01.744Z,43.78
2022-11-30T14:02:33.134Z,43.51
2022-11-30T14:05:03.107Z,43.52
2022-11-30T14:07:33.121Z,43.64
2022-11-30T14:10:00.183Z,43.58
2022-11-30T14:12:30.179Z,43.62
2022-11-30T14:14:57.618Z,43.54
2022-11-30T14:17:26.834Z,43.54
2022-11-30T14:19:58.556Z,43.43
2022-11-30T14:22:26.754Z,43.25
2022-11-30T14:24:54.410Z,43.21
2022-11-30T14:27:23.673Z,43.45
2022-11-30T14:29:53.600Z,43.48
2022-11-30T14:32:26.122Z,43.28
2022-11-30T14:34:56.391Z,43.08
2022-11-30T14:37:26.803Z,43.18
2022-11-30T14:39:57.017Z,43.15
2022-11-30T14:42:25.910Z,43.31
2022-11-30T14:44:53.581Z,42.87
2022-11-30T14:47:21.023Z,43.00
2022-11-30T14:49:52.215Z,42.91
2022-11-30T14:52:22.310Z,43.03
2022-11-30T14:54:51.060Z,43.04
2022-11-30T14:57:21.181Z,42.81
2022-11-30T14:59:50.243Z,42.84
2022-11-30T15:02:20.992Z,42.50
2022-11-30T15:04:49.700Z,42.43
2022-11-30T15:07:17.105Z,42.75
2022-11-30T15:09:45.387Z,42.67
2022-11-30T15:12:17.144Z,42.70
2022-11-30T15:15:02.310Z,42.50
2022-11-30T15:17:29.499Z,42.72
2022-11-30T15:19:56.600Z,42.54
2022-11-30T15:22:24.231Z,42.68
2022-11-30T15:24:51.489Z,42.52
2022-11-30T15:27:22.252Z,43.00
2022-11-30T15:29:57.568Z,42.77
2022-11-30T15:32:25.238Z,43.03
2022-11-30T15:34:56.880Z,43.08
2022-11-30T15:37:27.415Z,42.89
2022-11-30T15:39:56.206Z,42.73
2022-11-30T15:42:29.239Z,42.90
2022-11-30T15:45:00.921Z,43.06
2022-11-30T15:47:31.381Z,43.33
2022-11-30T15:50:17.579Z,43.23
2022-11-30T15:52:45.491Z,43.44
2022-11-30T15:55:32.429Z,43.30
2022-11-30T15:58:01.052Z,43.11
2022-11-30T16:00:32.972Z,43.17
2022-11-30T16:03:03.149Z,43.39
2022-11-30T16:05:30.402Z,43.40
2022-11-30T16:08:00.409Z,43.43
2022-11-30T16:10:30.620Z,43.57
2022-11-30T16:12:57.667Z,43.70
2022-11-30T16:15:27.571Z,43.57
2022-11-30T16:17:57.633Z,43.59
2022-11-30T16:20:25.388Z,43.87
2022-11-30T16:22:52.934Z,43.65
2022-11-30T16:25:22.124Z,43.83
2022-11-30T16:27:49.745Z,43.63
2022-11-30T16:30:20.052Z,43.61
2022-11-30T16:32:47.399Z,43.57
2022-11-30T16:35:17.703Z,43.53
2022-11-30T16:37:45.192Z,43.34
2022-11-30T16:40:13.840Z,43.74
2022-11-30T16:42:41.667Z,43.61
2022-11-30T16:45:14.241Z,43.11
2022-11-30T16:47:45.199Z,43.61
2022-11-30T16:50:13.426Z,43.47
2022-11-30T16:55:15.203Z,43.43
2022-11-30T16:57:42.546Z,43.03
2022-11-30T17:00:12.763Z,43.20
2022-11-30T17:02:43.609Z,43.12
2022-11-30T17:05:13.188Z,42.95
2022-11-30T17:07:46.400Z,43.03
2022-11-30T17:10:14.399Z,42.74
2022-11-30T17:12:41.492Z,43.11
2022-11-30T17:15:20.818Z,42.72
2022-11-30T17:17:50.898Z,42.71
2022-11-30T17:20:19.486Z,42.75
2022-11-30T17:22:46.136Z,42.94
2022-11-30T17:25:17.135Z,42.79
2022-11-30T17:27:44.384Z,43.15
2022-11-30T17:30:11.732Z,42.82
2022-11-30T17:32:38.336Z,43.10
2022-11-30T17:35:05.065Z,42.94
2022-11-30T17:37:31.703Z,43.21
2022-11-30T17:39:59.023Z,42.99
2022-11-30T17:42:25.668Z,43.40
2022-11-30T17:44:52.307Z,43.55
2022-11-30T17:47:24.216Z,43.43
2022-11-30T17:49:51.332Z,43.49
2022-11-30T17:52:18.097Z,43.87
2022-11-30T17:54:44.844Z,43.93
2022-11-30T17:57:11.757Z,44.06
2022-11-30T17:59:38.356Z,44.14
2022-11-30T18:02:05.241Z,44.43
2022-11-30T18:04:32.633Z,44.23
2022-11-30T18:06:59.300Z,44.25
2022-11-30T18:09:31.377Z,44.08
2022-11-30T18:11:58.103Z,44.40
2022-11-30T18:14:24.842Z,44.40
2022-11-30T18:16:51.496Z,44.14
2022-11-30T18:19:18.201Z,43.97
2022-11-30T18:21:45.263Z,44.32
2022-11-30T18:24:12.570Z,44.95
2022-11-30T18:26:40.443Z,45.04
2022-11-30T18:29:10.302Z,44.80
2022-11-30T18:31:36.873Z,44.61
2022-11-30T18:34:06.711Z,44.23
2022-11-30T18:36:33.780Z,44.40
2022-11-30T18:39:00.559Z,43.91
2022-11-30T18:41:28.752Z,44.25
2022-11-30T18:43:55.561Z,44.20
2022-11-30T18:46:22.260Z,44.20
2022-11-30T18:48:50.557Z,43.85
2022-11-30T18:51:35.567Z,44.00
2022-11-30T18:54:04.008Z,44.24
2022-11-30T18:56:32.010Z,44.28
2022-11-30T18:59:02.963Z,44.17
2022-11-30T19:01:30.380Z,44.32
2022-11-30T19:03:58.473Z,44.29
2022-11-30T19:06:28.232Z,44.14
2022-11-30T19:08:54.959Z,44.52
2022-11-30T19:11:21.579Z,44.57
2022-11-30T19:13:48.270Z,44.40
2022-11-30T19:16:18.047Z,44.59
2022-11-30T19:18:47.636Z,44.52
2022-11-30T19:21:18.004Z,44.60
2022-11-30T19:23:45.262Z,44.27
2022-11-30T19:26:21.696Z,44.79
2022-11-30T19:28:48.317Z,44.39
2022-11-30T19:31:15.970Z,44.31
2022-11-30T19:33:43.924Z,44.80
2022-11-30T19:36:19.947Z,44.75
2022-11-30T19:38:46.611Z,44.61
2022-11-30T19:41:14.172Z,44.42
2022-11-30T19:43:41.271Z,44.85
2022-11-30T19:46:17.536Z,44.61
2022-11-30T19:48:44.652Z,44.66
2022-11-30T19:51:17.622Z,44.68
2022-11-30T19:53:45.306Z,44.53
2022-11-30T19:56:19.236Z,44.66
2022-11-30T19:58:46.349Z,44.69
2022-11-30T20:01:13.494Z,44.82
2022-11-30T20:03:40.545Z,44.54
2022-11-30T20:06:13.133Z,44.76
2022-11-30T20:08:40.137Z,44.99
2022-11-30T20:11:11.747Z,44.66
2022-11-30T20:13:38.462Z,44.91
2022-11-30T20:16:19.888Z,44.78
2022-11-30T20:18:51.586Z,44.72
2022-11-30T20:21:19.411Z,44.87
2022-11-30T20:23:47.319Z,45.06
2022-11-30T20:26:20.921Z,45.02
2022-11-30T20:28:48.218Z,45.05
2022-11-30T20:31:16.074Z,44.77
2022-11-30T20:33:42.918Z,44.91
2022-11-30T20:36:23.611Z,44.87
2022-11-30T20:38:50.287Z,45.23
2022-11-30T20:41:21.193Z,45.00
2022-11-30T20:43:48.306Z,44.69
2022-11-30T20:46:22.321Z,45.14
2022-11-30T20:48:49.387Z,45.20
2022-11-30T20:51:33.448Z,44.66
2022-11-30T20:54:05.799Z,44.92
2022-11-30T20:56:33.027Z,44.67
2022-11-30T20:59:03.330Z,44.57
2022-11-30T21:01:30.420Z,44.80
2022-11-30T21:03:57.334Z,44.58
2022-11-30T21:06:28.174Z,44.58
2022-11-30T21:08:54.816Z,44.96
2022-11-30T21:11:21.828Z,44.62
2022-11-30T21:13:49.594Z,44.57
2022-11-30T21:16:27.111Z,45.01
2022-11-30T21:18:54.882Z,45.06
2022-11-30T21:21:23.344Z,44.99
2022-11-30T21:23:50.325Z,44.61
2022-11-30T21:26:23.743Z,44.83
2022-11-30T21:28:53.346Z,45.03
2022-11-30T21:31:20.667Z,45.15
2022-11-30T21:33:52.673Z,45.24
2022-11-30T21:36:22.289Z,44.95
2022-11-30T21:38:52.749Z,44.92
2022-11-30T21:41:19.379Z,44.95
2022-11-30T21:43:45.970Z,45.06
2022-11-30T21:46:25.391Z,45.08
2022-11-30T21:48:52.695Z,44.70
2022-11-30T21:51:20.692Z,44.57
2022-11-30T21:53:48.273Z,44.76
2022-11-30T21:56:27.522Z,44.46
2022-11-30T21:58:54.689Z,44.41
2022-11-30T22:01:28.856Z,44.11
2022-11-30T22:03:56.469Z,44.50
2022-11-30T22:06:25.819Z,44.22
2022-11-30T22:08:52.562Z,44.62
2022-11-30T22:11:20.596Z,44.44
2022-11-30T22:13:54.051Z,44.79
2022-11-30T22:16:21.664Z,44.65
2022-11-30T22:18:48.722Z,44.75
2022-11-30T22:21:17.161Z,45.07
2022-11-30T22:23:45.086Z,45.28
2022-11-30T22:26:18.829Z,45.29
2022-11-30T22:28:47.729Z,45.36
2022-11-30T22:31:15.248Z,45.25
2022-11-30T22:33:42.949Z,45.41
2022-11-30T22:36:20.982Z,45.22
2022-11-30T22:38:48.096Z,45.42
2022-11-30T22:41:16.237Z,45.29
2022-11-30T22:43:44.142Z,45.38
2022-11-30T22:46:15.401Z,45.06
2022-11-30T22:48:42.556Z,45.36
2022-11-30T22:51:10.710Z,45.00
2022-11-30T22:53:37.518Z,45.50
2022-11-30T22:56:17.010Z,44.92
2022-11-30T22:58:44.196Z,45.37
2022-11-30T23:01:13.521Z,45.21
2022-11-30T23:03:40.820Z,45.27
2022-11-30T23:06:08.146Z,45.31
2022-11-30T23:08:35.173Z,45.34
2022-11-30T23:11:03.694Z,45.01
2022-11-30T23:13:30.742Z,44.96
2022-11-30T23:15:57.933Z,45.21
2022-11-30T23:18:34.966Z,45.83
2022-11-30T23:21:06.189Z,45.91
2022-11-30T23:23:33.204Z,45.87
2022-11-30T23:26:16.944Z,46.29
2022-11-30T23:28:44.942Z,46.32
2022-11-30T23:31:34.027Z,46.20
2022-11-30T23:34:00.078Z,46.58
2022-11-30T23:36:27.337Z,46.29
2022-11-30T23:38:56.490Z,46.38
2022-11-30T23:41:23.447Z,46.42
2022-11-30T23:43:50.526Z,46.27
2022-11-30T23:46:17.493Z,46.16
2022-11-30T23:48:44.735Z,45.92
2022-11-30T23:51:11.584Z,45.73
2022-11-30T23:53:38.385Z,45.86
2022-11-30T23:56:13.261Z,45.48
2022-11-30T23:58:39.901Z,45.74
